MDT,Max TemperatureF,Mean TemperatureF,Min TemperatureF,Max Dew PointF,MeanDew PointF,Min DewpointF,Max Humidity, Mean Humidity, Min Humidity, Max Sea Level PressureIn, Mean Sea Level PressureIn, Min Sea Level PressureIn, Max VisibilityMiles, Mean VisibilityMiles, Min VisibilityMiles, Max Wind SpeedMPH, Mean Wind SpeedMPH, Max Gust SpeedMPH,PrecipitationIn, CloudCover, Events, WindDirDegrees
2011-9-1,97,80,63,52,45,40,52,30,14,29.94,29.76,29.70,10,10,3,15,8,22,0.00,1,Thunderstorm,127
2011-9-2,84,72,59,61,54,41,90,64,28,30.12,29.92,29.72,10,10,8,21,12,29,0.00,4,,29
2011-9-3,73,62,52,50,34,25,69,38,20,30.24,30.08,29.83,10,10,10,28,16,38,0.00,1,,16
2011-9-4,73,59,45,40,37,35,74,47,26,30.30,30.23,30.15,10,10,7,15,9,23,0.00,0,,141
2011-9-5,87,69,52,40,38,34,55,34,16,30.15,30.00,29.88,10,10,10,20,16,26,0.00,0,,164
2011-9-6,75,65,57,53,42,38,81,45,32,30.20,30.02,29.90,10,10,10,15,10,,0.00,2,Rain,107
2011-9-7,69,60,50,52,48,43,93,71,40,30.37,30.28,30.19,10,10,8,16,9,,0.00,6,Rain,206
2011-9-8,78,62,48,53,48,40,100,77,28,30.41,30.32,30.17,10,6,0,12,9,,0.00,1,Fog,273
2011-9-9,77,63,51,44,41,37,68,46,25,30.19,30.13,30.06,10,10,10,12,8,17,0.00,1,,173
2011-9-10,78,62,48,42,40,37,71,44,24,30.18,30.12,30.06,10,10,10,13,7,,0.00,0,,173
2011-9-11,87,70,55,42,35,27,60,32,12,30.09,30.02,29.93,10,10,10,15,12,23,0.00,0,,194
2011-9-12,88,72,57,43,37,32,46,30,17,30.10,29.98,29.91,10,10,10,18,12,33,0.00,1,Rain,307
2011-9-13,80,67,55,55,46,42,89,53,28,30.14,30.04,29.95,10,10,9,18,6,23,0.01,2,Rain,180
2011-9-14,54,50,44,52,49,43,100,95,88,30.29,30.22,30.03,10,3,1,24,12,31,0.41,8,Rain,101
2011-9-15,48,44,39,48,42,39,100,97,93,30.24,30.14,30.03,9,4,1,25,21,33,0.11,8,Rain,142
2011-9-16,73,60,46,54,50,46,100,91,42,30.04,29.97,29.84,10,5,0,17,11,20,0.00,5,Fog,157
2011-9-17,73,60,48,54,51,46,100,84,46,30.04,29.92,29.79,10,6,1,26,11,36,0.89,4,Rain-Thunderstorm,233
2011-9-18,73,59,46,50,41,32,96,58,23,30.13,30.09,30.02,10,10,10,13,9,,0.01,0,,246
2011-9-19,82,66,50,42,39,35,71,39,19,30.12,29.98,29.87,10,10,10,15,11,21,0.00,0,,235
2011-9-20,66,54,45,43,35,28,71,50,29,30.21,30.09,29.87,10,10,10,33,16,45,0.00,2,Rain,3
2011-9-21,64,55,46,41,37,33,77,56,33,30.26,30.20,30.13,10,10,10,12,6,17,0.00,3,,147
2011-9-22,75,59,43,43,31,21,89,46,14,30.19,30.11,30.04,10,10,10,17,10,18,0.00,0,,245
2011-9-23,82,65,48,39,33,26,52,32,14,30.14,30.05,29.98,10,10,9,15,11,21,0.00,0,,274
2011-9-24,84,66,51,41,37,32,59,36,17,29.96,29.90,29.83,10,9,6,21,14,24,0.00,0,,319
2011-9-25,82,66,51,44,42,39,71,44,22,30.01,29.87,29.73,10,6,1,13,7,,0.00,0,,282
2011-9-26,87,70,54,46,38,30,62,35,13,29.95,29.82,29.72,10,10,10,18,10,26,0.00,0,,17
2011-9-27,82,66,50,46,42,34,80,47,18,30.08,30.00,29.95,10,10,10,9,7,,0.00,0,,137
2011-9-28,87,72,57,39,35,28,51,30,12,29.96,29.92,29.87,10,10,9,16,11,16,0.00,0,,264
2011-9-29,66,57,48,41,32,28,61,42,27,30.37,30.27,29.98,10,10,10,20,11,26,0.00,0,,38
2011-9-30,78,62,45,33,29,24,47,33,19,30.32,30.16,30.02,10,10,10,23,13,30,0.00,0,,168